sensor_id;sensor_type;location;lat;lon;timestamp;temperature;humidity
44775;DHT22;31340;51.402;0.016;2022-11-14T00:01:25;11.30;99.90
44775;DHT22;31340;51.402;0.016;2022-11-14T00:04:11;11.20;99.90
44775;DHT22;31340;51.402;0.016;2022-11-14T00:06:58;11.20;99.90
44775;DHT22;31340;51.402;0.016;2022-11-14T00:09:44;11.20;99.90
44775;DHT22;31340;51.402;0.016;2022-11-14T00:12:30;11.20;99.90
44775;DHT22;31340;51.402;0.016;2022-11-14T00:15:18;11.20;99.90
44775;DHT22;31340;51.402;0.016;2022-11-14T00:18:06;11.20;99.90
44775;DHT22;31340;51.402;0.016;2022-11-14T00:20:53;11.20;99.90
44775;DHT22;31340;51.402;0.016;2022-11-14T00:23:39;11.10;99.90
44775;DHT22;31340;51.402;0.016;2022-11-14T00:26:25;11.10;99.90
44775;DHT22;31340;51.402;0.016;2022-11-14T00:29:14;11.10;99.90
44775;DHT22;31340;51.402;0.016;2022-11-14T00:32:00;11.10;99.90
44775;DHT22;31340;51.402;0.016;2022-11-14T00:34:47;11.10;99.90
44775;DHT22;31340;51.402;0.016;2022-11-14T00:37:34;11.10;99.90
44775;DHT22;31340;51.402;0.016;2022-11-14T00:40:20;11.10;99.90
44775;DHT22;31340;51.402;0.016;2022-11-14T00:43:07;11.10;99.90
44775;DHT22;31340;51.402;0.016;2022-11-14T00:45:53;11.10;99.90
44775;DHT22;31340;51.402;0.016;2022-11-14T00:48:40;11.10;99.90
44775;DHT22;31340;51.402;0.016;2022-11-14T00:51:26;11.00;99.90
44775;DHT22;31340;51.402;0.016;2022-11-14T00:54:13;11.00;99.90
44775;DHT22;31340;51.402;0.016;2022-11-14T00:56:59;11.00;99.90
44775;DHT22;31340;51.402;0.016;2022-11-14T00:59:45;11.00;99.90
44775;DHT22;31340;51.402;0.016;2022-11-14T01:02:32;11.00;99.90
44775;DHT22;31340;51.402;0.016;2022-11-14T01:05:18;11.00;99.90
44775;DHT22;31340;51.402;0.016;2022-11-14T01:08:04;11.00;99.90
44775;DHT22;31340;51.402;0.016;2022-11-14T01:10:50;11.00;99.90
44775;DHT22;31340;51.402;0.016;2022-11-14T01:13:37;11.00;99.90
44775;DHT22;31340;51.402;0.016;2022-11-14T01:16:24;11.00;99.90
44775;DHT22;31340;51.402;0.016;2022-11-14T01:19:11;11.00;99.90
44775;DHT22;31340;51.402;0.016;2022-11-14T01:21:57;11.00;99.90
44775;DHT22;31340;51.402;0.016;2022-11-14T01:24:51;11.00;99.90
44775;DHT22;31340;51.402;0.016;2022-11-14T01:27:37;11.00;99.90
44775;DHT22;31340;51.402;0.016;2022-11-14T01:30:24;11.00;99.90
44775;DHT22;31340;51.402;0.016;2022-11-14T01:33:11;11.00;99.90
44775;DHT22;31340;51.402;0.016;2022-11-14T01:35:59;11.00;99.90
44775;DHT22;31340;51.402;0.016;2022-11-14T01:38:45;11.10;99.90
44775;DHT22;31340;51.402;0.016;2022-11-14T01:41:32;11.10;99.90
44775;DHT22;31340;51.402;0.016;2022-11-14T01:47:28;11.10;99.90
44775;DHT22;31340;51.402;0.016;2022-11-14T01:50:15;11.10;99.90
44775;DHT22;31340;51.402;0.016;2022-11-14T01:53:01;11.10;99.90
44775;DHT22;31340;51.402;0.016;2022-11-14T01:55:48;11.10;99.90
44775;DHT22;31340;51.402;0.016;2022-11-14T01:58:37;11.20;99.90
44775;DHT22;31340;51.402;0.016;2022-11-14T02:01:26;11.20;99.90
44775;DHT22;31340;51.402;0.016;2022-11-14T02:04:22;11.20;99.90
44775;DHT22;31340;51.402;0.016;2022-11-14T02:07:10;11.20;99.90
44775;DHT22;31340;51.402;0.016;2022-11-14T02:09:58;11.20;99.90
44775;DHT22;31340;51.402;0.016;2022-11-14T02:12:47;11.20;99.90
44775;DHT22;31340;51.402;0.016;2022-11-14T02:15:38;11.30;99.90
44775;DHT22;31340;51.402;0.016;2022-11-14T02:18:24;11.30;99.90
44775;DHT22;31340;51.402;0.016;2022-11-14T02:21:11;11.30;99.90
44775;DHT22;31340;51.402;0.016;2022-11-14T02:23:58;11.30;99.90
44775;DHT22;31340;51.402;0.016;2022-11-14T02:26:44;11.30;99.90
44775;DHT22;31340;51.402;0.016;2022-11-14T02:29:32;11.40;99.90
44775;DHT22;31340;51.402;0.016;2022-11-14T02:32:19;11.40;99.90
44775;DHT22;31340;51.402;0.016;2022-11-14T02:35:06;11.40;99.90
44775;DHT22;31340;51.402;0.016;2022-11-14T02:37:53;11.40;99.90
44775;DHT22;31340;51.402;0.016;2022-11-14T02:40:39;11.50;99.90
44775;DHT22;31340;51.402;0.016;2022-11-14T02:43:26;11.50;99.90
44775;DHT22;31340;51.402;0.016;2022-11-14T02:46:12;11.60;99.90
44775;DHT22;31340;51.402;0.016;2022-11-14T02:48:58;11.60;99.90
44775;DHT22;31340;51.402;0.016;2022-11-14T02:51:44;11.60;99.90
44775;DHT22;31340;51.402;0.016;2022-11-14T02:54:32;11.70;99.90
44775;DHT22;31340;51.402;0.016;2022-11-14T02:57:18;11.70;99.90
44775;DHT22;31340;51.402;0.016;2022-11-14T03:00:05;11.80;99.90
44775;DHT22;31340;51.402;0.016;2022-11-14T03:02:59;11.80;99.90
44775;DHT22;31340;51.402;0.016;2022-11-14T03:05:45;11.80;99.90
44775;DHT22;31340;51.402;0.016;2022-11-14T03:08:32;11.80;99.90
44775;DHT22;31340;51.402;0.016;2022-11-14T03:11:19;11.80;99.90
44775;DHT22;31340;51.402;0.016;2022-11-14T03:14:05;11.80;99.90
44775;DHT22;31340;51.402;0.016;2022-11-14T03:16:54;11.80;99.90
44775;DHT22;31340;51.402;0.016;2022-11-14T03:19:40;11.80;99.90
44775;DHT22;31340;51.402;0.016;2022-11-14T03:22:26;11.80;99.90
44775;DHT22;31340;51.402;0.016;2022-11-14T03:25:12;11.80;99.90
44775;DHT22;31340;51.402;0.016;2022-11-14T03:27:58;11.80;99.90
44775;DHT22;31340;51.402;0.016;2022-11-14T03:30:45;11.80;99.90
44775;DHT22;31340;51.402;0.016;2022-11-14T03:33:32;11.80;99.90
44775;DHT22;31340;51.402;0.016;2022-11-14T03:36:19;11.80;99.90
44775;DHT22;31340;51.402;0.016;2022-11-14T03:39:05;11.80;99.90
44775;DHT22;31340;51.402;0.016;2022-11-14T03:41:51;11.80;99.90
44775;DHT22;31340;51.402;0.016;2022-11-14T03:44:38;11.80;99.90
44775;DHT22;31340;51.402;0.016;2022-11-14T03:47:24;11.80;99.90
44775;DHT22;31340;51.402;0.016;2022-11-14T03:50:10;11.80;99.90
44775;DHT22;31340;51.402;0.016;2022-11-14T03:52:56;11.80;99.90
44775;DHT22;31340;51.402;0.016;2022-11-14T03:55:43;11.80;99.90
44775;DHT22;31340;51.402;0.016;2022-11-14T03:58:29;11.80;99.90
44775;DHT22;31340;51.402;0.016;2022-11-14T04:01:16;11.80;99.90
44775;DHT22;31340;51.402;0.016;2022-11-14T04:04:03;11.80;99.90
44775;DHT22;31340;51.402;0.016;2022-11-14T04:06:49;11.80;99.90
44775;DHT22;31340;51.402;0.016;2022-11-14T04:09:36;11.80;99.90
44775;DHT22;31340;51.402;0.016;2022-11-14T04:12:22;11.80;99.90
44775;DHT22;31340;51.402;0.016;2022-11-14T04:15:08;11.80;99.90
44775;DHT22;31340;51.402;0.016;2022-11-14T04:17:55;11.80;99.90
44775;DHT22;31340;51.402;0.016;2022-11-14T04:20:41;11.80;99.90
44775;DHT22;31340;51.402;0.016;2022-11-14T04:23:27;11.80;99.90
44775;DHT22;31340;51.402;0.016;2022-11-14T04:26:14;11.80;99.90
44775;DHT22;31340;51.402;0.016;2022-11-14T04:29:00;11.80;99.90
44775;DHT22;31340;51.402;0.016;2022-11-14T04:31:46;11.80;99.90
44775;DHT22;31340;51.402;0.016;2022-11-14T04:34:32;11.80;99.90
44775;DHT22;31340;51.402;0.016;2022-11-14T04:37:19;11.80;99.90
44775;DHT22;31340;51.402;0.016;2022-11-14T04:40:05;11.80;99.90
44775;DHT22;31340;51.402;0.016;2022-11-14T04:42:52;11.80;99.90
44775;DHT22;31340;51.402;0.016;2022-11-14T04:45:38;11.80;99.90
44775;DHT22;31340;51.402;0.016;2022-11-14T04:48:24;11.80;99.90
44775;DHT22;31340;51.402;0.016;2022-11-14T04:51:10;11.80;99.90
44775;DHT22;31340;51.402;0.016;2022-11-14T04:53:57;11.80;99.90
44775;DHT22;31340;51.402;0.016;2022-11-14T04:56:43;11.80;99.90
44775;DHT22;31340;51.402;0.016;2022-11-14T04:59:29;11.80;99.90
44775;DHT22;31340;51.402;0.016;2022-11-14T05:02:15;11.80;99.90
44775;DHT22;31340;51.402;0.016;2022-11-14T05:05:02;11.70;99.90
44775;DHT22;31340;51.402;0.016;2022-11-14T05:07:48;11.80;99.90
44775;DHT22;31340;51.402;0.016;2022-11-14T05:10:34;11.80;99.90
44775;DHT22;31340;51.402;0.016;2022-11-14T05:13:20;11.80;99.90
44775;DHT22;31340;51.402;0.016;2022-11-14T05:16:06;11.80;99.90
44775;DHT22;31340;51.402;0.016;2022-11-14T05:18:53;11.80;99.90
44775;DHT22;31340;51.402;0.016;2022-11-14T05:21:40;11.80;99.90
44775;DHT22;31340;51.402;0.016;2022-11-14T05:24:26;11.80;99.90
44775;DHT22;31340;51.402;0.016;2022-11-14T05:27:13;11.80;99.90
44775;DHT22;31340;51.402;0.016;2022-11-14T05:30:00;11.80;99.90
44775;DHT22;31340;51.402;0.016;2022-11-14T05:32:47;11.90;99.90
44775;DHT22;31340;51.402;0.016;2022-11-14T05:35:32;11.90;99.90
44775;DHT22;31340;51.402;0.016;2022-11-14T05:38:19;11.90;99.90
44775;DHT22;31340;51.402;0.016;2022-11-14T05:41:12;11.90;99.90
44775;DHT22;31340;51.402;0.016;2022-11-14T05:43:59;12.00;99.90
44775;DHT22;31340;51.402;0.016;2022-11-14T05:46:45;12.00;99.90
44775;DHT22;31340;51.402;0.016;2022-11-14T05:49:31;12.00;99.90
44775;DHT22;31340;51.402;0.016;2022-11-14T05:52:17;12.00;99.90
44775;DHT22;31340;51.402;0.016;2022-11-14T05:55:04;12.00;99.90
44775;DHT22;31340;51.402;0.016;2022-11-14T05:57:51;12.10;99.90
44775;DHT22;31340;51.402;0.016;2022-11-14T06:00:40;12.10;99.90
44775;DHT22;31340;51.402;0.016;2022-11-14T06:03:39;12.20;99.90
44775;DHT22;31340;51.402;0.016;2022-11-14T06:06:26;12.20;99.90
44775;DHT22;31340;51.402;0.016;2022-11-14T06:09:13;12.20;99.90
44775;DHT22;31340;51.402;0.016;2022-11-14T06:11:59;12.20;99.90
44775;DHT22;31340;51.402;0.016;2022-11-14T06:14:45;12.30;99.90
44775;DHT22;31340;51.402;0.016;2022-11-14T06:17:32;12.30;99.90
44775;DHT22;31340;51.402;0.016;2022-11-14T06:20:19;12.30;99.90
44775;DHT22;31340;51.402;0.016;2022-11-14T06:23:06;12.30;99.90
44775;DHT22;31340;51.402;0.016;2022-11-14T06:26:00;12.30;99.90
44775;DHT22;31340;51.402;0.016;2022-11-14T06:28:47;12.30;99.90
44775;DHT22;31340;51.402;0.016;2022-11-14T06:31:34;12.30;99.90
44775;DHT22;31340;51.402;0.016;2022-11-14T06:34:20;12.30;99.90
44775;DHT22;31340;51.402;0.016;2022-11-14T06:37:06;12.30;99.90
44775;DHT22;31340;51.402;0.016;2022-11-14T06:39:52;12.30;99.90
44775;DHT22;31340;51.402;0.016;2022-11-14T06:42:39;12.20;99.90
44775;DHT22;31340;51.402;0.016;2022-11-14T06:45:25;12.20;99.90
44775;DHT22;31340;51.402;0.016;2022-11-14T06:48:11;12.20;99.90
44775;DHT22;31340;51.402;0.016;2022-11-14T06:50:58;12.10;99.90
44775;DHT22;31340;51.402;0.016;2022-11-14T06:53:45;12.20;99.90
44775;DHT22;31340;51.402;0.016;2022-11-14T06:56:31;12.10;99.90
44775;DHT22;31340;51.402;0.016;2022-11-14T06:59:17;12.10;99.90
44775;DHT22;31340;51.402;0.016;2022-11-14T07:02:04;12.10;99.90
44775;DHT22;31340;51.402;0.016;2022-11-14T07:04:50;12.00;99.90
44775;DHT22;31340;51.402;0.016;2022-11-14T07:07:37;12.00;99.90
44775;DHT22;31340;51.402;0.016;2022-11-14T07:10:23;11.90;99.90
44775;DHT22;31340;51.402;0.016;2022-11-14T07:13:09;11.90;99.90
44775;DHT22;31340;51.402;0.016;2022-11-14T07:15:56;11.90;99.90
44775;DHT22;31340;51.402;0.016;2022-11-14T07:18:43;11.80;99.90
44775;DHT22;31340;51.402;0.016;2022-11-14T07:21:30;11.80;99.90
44775;DHT22;31340;51.402;0.016;2022-11-14T07:24:18;11.80;99.90
44775;DHT22;31340;51.402;0.016;2022-11-14T07:27:05;11.80;99.90
44775;DHT22;31340;51.402;0.016;2022-11-14T07:29:53;11.70;99.90
44775;DHT22;31340;51.402;0.016;2022-11-14T07:32:39;11.70;99.90
44775;DHT22;31340;51.402;0.016;2022-11-14T07:35:25;11.70;99.90
44775;DHT22;31340;51.402;0.016;2022-11-14T07:38:11;11.70;99.90
44775;DHT22;31340;51.402;0.016;2022-11-14T07:40:59;11.70;99.90
44775;DHT22;31340;51.402;0.016;2022-11-14T07:43:46;11.70;99.90
44775;DHT22;31340;51.402;0.016;2022-11-14T07:46:32;11.70;99.90
44775;DHT22;31340;51.402;0.016;2022-11-14T07:49:18;11.70;99.90
44775;DHT22;31340;51.402;0.016;2022-11-14T07:52:04;11.70;99.90
44775;DHT22;31340;51.402;0.016;2022-11-14T07:54:50;11.70;99.90
44775;DHT22;31340;51.402;0.016;2022-11-14T07:57:36;11.70;99.90
44775;DHT22;31340;51.402;0.016;2022-11-14T08:00:29;11.70;99.90
44775;DHT22;31340;51.402;0.016;2022-11-14T08:03:15;11.70;99.90
44775;DHT22;31340;51.402;0.016;2022-11-14T08:06:06;11.70;99.90
44775;DHT22;31340;51.402;0.016;2022-11-14T08:08:53;11.80;99.90
44775;DHT22;31340;51.402;0.016;2022-11-14T08:11:39;11.80;99.90
44775;DHT22;31340;51.402;0.016;2022-11-14T08:14:35;11.80;99.90
44775;DHT22;31340;51.402;0.016;2022-11-14T08:17:22;11.80;99.90
44775;DHT22;31340;51.402;0.016;2022-11-14T08:20:10;11.80;99.90
44775;DHT22;31340;51.402;0.016;2022-11-14T08:23:03;11.90;99.90
44775;DHT22;31340;51.402;0.016;2022-11-14T08:25:50;11.90;99.90
44775;DHT22;31340;51.402;0.016;2022-11-14T08:28:36;11.90;99.90
44775;DHT22;31340;51.402;0.016;2022-11-14T08:31:23;12.00;99.90
44775;DHT22;31340;51.402;0.016;2022-11-14T08:34:09;12.00;99.90
44775;DHT22;31340;51.402;0.016;2022-11-14T08:36:55;12.10;99.90
44775;DHT22;31340;51.402;0.016;2022-11-14T08:39:42;12.10;99.90
44775;DHT22;31340;51.402;0.016;2022-11-14T08:42:28;12.10;99.90
44775;DHT22;31340;51.402;0.016;2022-11-14T08:45:14;12.20;99.90
44775;DHT22;31340;51.402;0.016;2022-11-14T08:48:01;12.20;99.90
44775;DHT22;31340;51.402;0.016;2022-11-14T08:50:47;12.30;99.90
44775;DHT22;31340;51.402;0.016;2022-11-14T08:53:33;12.30;99.90
44775;DHT22;31340;51.402;0.016;2022-11-14T08:56:19;12.30;99.90
44775;DHT22;31340;51.402;0.016;2022-11-14T08:59:06;12.40;99.90
44775;DHT22;31340;51.402;0.016;2022-11-14T09:01:52;12.50;99.90
44775;DHT22;31340;51.402;0.016;2022-11-14T09:04:39;12.50;99.90
44775;DHT22;31340;51.402;0.016;2022-11-14T09:07:26;12.50;99.90
44775;DHT22;31340;51.402;0.016;2022-11-14T09:10:13;12.60;99.90
44775;DHT22;31340;51.402;0.016;2022-11-14T09:13:01;12.60;99.90
44775;DHT22;31340;51.402;0.016;2022-11-14T09:15:47;12.70;99.90
44775;DHT22;31340;51.402;0.016;2022-11-14T09:18:33;12.70;99.90
44775;DHT22;31340;51.402;0.016;2022-11-14T09:21:20;12.70;99.90
44775;DHT22;31340;51.402;0.016;2022-11-14T09:24:06;12.80;99.90
44775;DHT22;31340;51.402;0.016;2022-11-14T09:26:52;12.80;99.90
44775;DHT22;31340;51.402;0.016;2022-11-14T09:29:42;12.80;99.90
44775;DHT22;31340;51.402;0.016;2022-11-14T09:32:28;12.80;99.90
44775;DHT22;31340;51.402;0.016;2022-11-14T09:35:15;12.90;99.90
44775;DHT22;31340;51.402;0.016;2022-11-14T09:38:03;12.90;99.90
44775;DHT22;31340;51.402;0.016;2022-11-14T09:44:30;13.00;99.90
44775;DHT22;31340;51.402;0.016;2022-11-14T09:47:23;13.10;99.90
44775;DHT22;31340;51.402;0.016;2022-11-14T09:50:46;13.20;99.90
44775;DHT22;31340;51.402;0.016;2022-11-14T09:53:39;13.20;99.90
44775;DHT22;31340;51.402;0.016;2022-11-14T09:56:27;13.30;99.90
44775;DHT22;31340;51.402;0.016;2022-11-14T09:59:14;13.30;99.90
44775;DHT22;31340;51.402;0.016;2022-11-14T10:02:23;13.40;99.90
44775;DHT22;31340;51.402;0.016;2022-11-14T10:10:58;13.50;99.90
44775;DHT22;31340;51.402;0.016;2022-11-14T10:13:57;13.60;99.90
44775;DHT22;31340;51.402;0.016;2022-11-14T10:20:33;13.70;99.90
44775;DHT22;31340;51.402;0.016;2022-11-14T10:26:28;13.90;99.90
44775;DHT22;31340;51.402;0.016;2022-11-14T10:29:56;14.00;99.90
44775;DHT22;31340;51.402;0.016;2022-11-14T10:42:40;14.40;99.90
44775;DHT22;31340;51.402;0.016;2022-11-14T10:48:29;14.60;99.90
44775;DHT22;31340;51.402;0.016;2022-11-14T10:55:05;14.80;99.90
44775;DHT22;31340;51.402;0.016;2022-11-14T10:57:35;14.90;99.90
44775;DHT22;31340;51.402;0.016;2022-11-14T11:00:21;14.90;99.90
44775;DHT22;31340;51.402;0.016;2022-11-14T11:03:11;15.00;99.90
44775;DHT22;31340;51.402;0.016;2022-11-14T11:05:57;15.10;99.90
44775;DHT22;31340;51.402;0.016;2022-11-14T11:08:45;15.20;99.90
44775;DHT22;31340;51.402;0.016;2022-11-14T11:11:59;15.40;99.90
44775;DHT22;31340;51.402;0.016;2022-11-14T11:14:48;15.40;99.90
44775;DHT22;31340;51.402;0.016;2022-11-14T11:17:36;15.50;99.90
44775;DHT22;31340;51.402;0.016;2022-11-14T11:23:20;15.70;99.90
44775;DHT22;31340;51.402;0.016;2022-11-14T11:26:25;15.80;99.90
44775;DHT22;31340;51.402;0.016;2022-11-14T11:31:59;15.90;99.90
44775;DHT22;31340;51.402;0.016;2022-11-14T11:34:45;16.00;99.90
44775;DHT22;31340;51.402;0.016;2022-11-14T11:40:28;16.00;99.90
44775;DHT22;31340;51.402;0.016;2022-11-14T11:46:44;16.00;99.90
44775;DHT22;31340;51.402;0.016;2022-11-14T11:49:43;16.10;99.90
44775;DHT22;31340;51.402;0.016;2022-11-14T11:55:48;16.20;99.90
44775;DHT22;31340;51.402;0.016;2022-11-14T11:58:40;16.20;99.90
44775;DHT22;31340;51.402;0.016;2022-11-14T12:01:28;16.20;99.90
44775;DHT22;31340;51.402;0.016;2022-11-14T12:04:14;16.30;99.90
44775;DHT22;31340;51.402;0.016;2022-11-14T12:07:11;16.40;99.90
44775;DHT22;31340;51.402;0.016;2022-11-14T12:10:04;16.50;99.90
44775;DHT22;31340;51.402;0.016;2022-11-14T12:16:23;16.60;99.90
44775;DHT22;31340;51.402;0.016;2022-11-14T12:26:05;16.70;99.90
44775;DHT22;31340;51.402;0.016;2022-11-14T12:29:10;16.70;99.90
44775;DHT22;31340;51.402;0.016;2022-11-14T12:32:05;16.60;99.90
44775;DHT22;31340;51.402;0.016;2022-11-14T12:34:51;16.60;99.90
44775;DHT22;31340;51.402;0.016;2022-11-14T12:37:44;16.60;99.90
44775;DHT22;31340;51.402;0.016;2022-11-14T12:40:39;16.60;99.90
44775;DHT22;31340;51.402;0.016;2022-11-14T12:43:37;16.60;99.90
44775;DHT22;31340;51.402;0.016;2022-11-14T12:46:25;16.50;99.90
44775;DHT22;31340;51.402;0.016;2022-11-14T12:52:52;16.50;99.90
44775;DHT22;31340;51.402;0.016;2022-11-14T13:10:43;16.40;99.90
44775;DHT22;31340;51.402;0.016;2022-11-14T13:13:29;16.50;99.90
44775;DHT22;31340;51.402;0.016;2022-11-14T13:16:35;16.50;99.90
44775;DHT22;31340;51.402;0.016;2022-11-14T13:19:46;16.50;99.90
44775;DHT22;31340;51.402;0.016;2022-11-14T13:22:50;16.60;99.90
44775;DHT22;31340;51.402;0.016;2022-11-14T13:25:37;16.60;99.90
44775;DHT22;31340;51.402;0.016;2022-11-14T13:28:43;16.70;99.90
44775;DHT22;31340;51.402;0.016;2022-11-14T13:34:42;16.80;99.90
44775;DHT22;31340;51.402;0.016;2022-11-14T13:50:17;17.30;99.90
44775;DHT22;31340;51.402;0.016;2022-11-14T13:53:12;17.60;99.90
44775;DHT22;31340;51.402;0.016;2022-11-14T13:59:34;18.00;99.90
44775;DHT22;31340;51.402;0.016;2022-11-14T14:24:19;18.80;99.90
44775;DHT22;31340;51.402;0.016;2022-11-14T14:30:22;18.80;99.90
44775;DHT22;31340;51.402;0.016;2022-11-14T14:33:11;18.80;99.90
44775;DHT22;31340;51.402;0.016;2022-11-14T14:35:58;18.70;99.90
44775;DHT22;31340;51.402;0.016;2022-11-14T14:38:44;18.70;99.90
44775;DHT22;31340;51.402;0.016;2022-11-14T14:41:31;18.60;99.90
44775;DHT22;31340;51.402;0.016;2022-11-14T14:44:22;18.50;99.90
44775;DHT22;31340;51.402;0.016;2022-11-14T14:47:23;18.50;99.90
44775;DHT22;31340;51.402;0.016;2022-11-14T14:50:22;18.40;99.90
44775;DHT22;31340;51.402;0.016;2022-11-14T14:53:23;18.30;99.90
44775;DHT22;31340;51.402;0.016;2022-11-14T14:56:20;18.20;99.90
44775;DHT22;31340;51.402;0.016;2022-11-14T14:59:20;18.20;99.90
44775;DHT22;31340;51.402;0.016;2022-11-14T15:02:14;18.10;99.90
44775;DHT22;31340;51.402;0.016;2022-11-14T15:05:02;18.00;99.90
44775;DHT22;31340;51.402;0.016;2022-11-14T15:07:51;18.00;99.90
44775;DHT22;31340;51.402;0.016;2022-11-14T15:10:38;17.90;99.90
44775;DHT22;31340;51.402;0.016;2022-11-14T15:13:27;17.90;99.90
44775;DHT22;31340;51.402;0.016;2022-11-14T15:16:13;17.80;99.90
44775;DHT22;31340;51.402;0.016;2022-11-14T15:19:00;17.80;99.90
44775;DHT22;31340;51.402;0.016;2022-11-14T15:22:25;17.70;99.90
44775;DHT22;31340;51.402;0.016;2022-11-14T15:28:00;17.60;99.90
44775;DHT22;31340;51.402;0.016;2022-11-14T15:31:01;17.50;99.90
44775;DHT22;31340;51.402;0.016;2022-11-14T15:34:24;17.50;99.90
44775;DHT22;31340;51.402;0.016;2022-11-14T15:40:19;17.30;99.90
44775;DHT22;31340;51.402;0.016;2022-11-14T15:46:44;17.10;99.90
44775;DHT22;31340;51.402;0.016;2022-11-14T15:49:31;17.00;99.90
44775;DHT22;31340;51.402;0.016;2022-11-14T15:52:22;17.00;99.90
44775;DHT22;31340;51.402;0.016;2022-11-14T15:55:15;16.90;99.90
44775;DHT22;31340;51.402;0.016;2022-11-14T15:58:02;16.90;99.90
44775;DHT22;31340;51.402;0.016;2022-11-14T16:01:14;16.80;99.90
44775;DHT22;31340;51.402;0.016;2022-11-14T16:04:03;16.70;99.90
44775;DHT22;31340;51.402;0.016;2022-11-14T16:06:49;16.70;99.90
44775;DHT22;31340;51.402;0.016;2022-11-14T16:09:36;16.70;99.90
44775;DHT22;31340;51.402;0.016;2022-11-14T16:12:22;16.60;99.90
44775;DHT22;31340;51.402;0.016;2022-11-14T16:15:09;16.60;99.90
44775;DHT22;31340;51.402;0.016;2022-11-14T16:17:55;16.60;99.90
44775;DHT22;31340;51.402;0.016;2022-11-14T16:20:42;16.60;99.90
44775;DHT22;31340;51.402;0.016;2022-11-14T16:23:28;16.50;99.90
44775;DHT22;31340;51.402;0.016;2022-11-14T16:26:14;16.50;99.90
44775;DHT22;31340;51.402;0.016;2022-11-14T16:29:01;16.40;99.90
44775;DHT22;31340;51.402;0.016;2022-11-14T16:31:47;16.40;99.90
44775;DHT22;31340;51.402;0.016;2022-11-14T16:34:36;16.40;99.90
44775;DHT22;31340;51.402;0.016;2022-11-14T16:37:22;16.30;99.90
44775;DHT22;31340;51.402;0.016;2022-11-14T16:43:01;16.30;99.90
44775;DHT22;31340;51.402;0.016;2022-11-14T16:45:48;16.20;99.90
44775;DHT22;31340;51.402;0.016;2022-11-14T16:48:35;16.20;99.90
44775;DHT22;31340;51.402;0.016;2022-11-14T16:51:21;16.20;99.90
44775;DHT22;31340;51.402;0.016;2022-11-14T16:54:27;16.10;99.90
44775;DHT22;31340;51.402;0.016;2022-11-14T16:57:13;16.10;99.90
44775;DHT22;31340;51.402;0.016;2022-11-14T17:00:06;16.10;99.90
44775;DHT22;31340;51.402;0.016;2022-11-14T17:02:52;16.10;99.90
44775;DHT22;31340;51.402;0.016;2022-11-14T17:05:47;16.00;99.90
44775;DHT22;31340;51.402;0.016;2022-11-14T17:08:34;16.00;99.90
44775;DHT22;31340;51.402;0.016;2022-11-14T17:11:21;16.00;99.90
44775;DHT22;31340;51.402;0.016;2022-11-14T17:14:07;16.00;99.90
44775;DHT22;31340;51.402;0.016;2022-11-14T17:16:53;15.90;99.90
44775;DHT22;31340;51.402;0.016;2022-11-14T17:19:40;15.90;99.90
44775;DHT22;31340;51.402;0.016;2022-11-14T17:22:30;15.90;99.90
44775;DHT22;31340;51.402;0.016;2022-11-14T17:25:17;15.90;99.90
44775;DHT22;31340;51.402;0.016;2022-11-14T17:28:03;15.80;99.90
44775;DHT22;31340;51.402;0.016;2022-11-14T17:33:10;15.80;99.90
44775;DHT22;31340;51.402;0.016;2022-11-14T17:36:02;15.70;99.90
44775;DHT22;31340;51.402;0.016;2022-11-14T17:38:48;15.70;99.90
44775;DHT22;31340;51.402;0.016;2022-11-14T17:41:34;15.70;99.90
44775;DHT22;31340;51.402;0.016;2022-11-14T17:44:20;15.70;99.90
44775;DHT22;31340;51.402;0.016;2022-11-14T17:47:06;15.70;99.90
44775;DHT22;31340;51.402;0.016;2022-11-14T17:49:53;15.70;99.90
44775;DHT22;31340;51.402;0.016;2022-11-14T17:52:43;15.60;99.90
44775;DHT22;31340;51.402;0.016;2022-11-14T17:55:29;15.60;99.90
44775;DHT22;31340;51.402;0.016;2022-11-14T17:58:15;15.60;99.90
44775;DHT22;31340;51.402;0.016;2022-11-14T18:01:10;15.60;99.90
44775;DHT22;31340;51.402;0.016;2022-11-14T18:03:57;15.50;99.90
44775;DHT22;31340;51.402;0.016;2022-11-14T18:06:51;15.50;99.90
44775;DHT22;31340;51.402;0.016;2022-11-14T18:09:38;15.50;99.90
44775;DHT22;31340;51.402;0.016;2022-11-14T18:12:25;15.40;99.90
44775;DHT22;31340;51.402;0.016;2022-11-14T18:15:12;15.40;99.90
44775;DHT22;31340;51.402;0.016;2022-11-14T18:18:00;15.30;99.90
44775;DHT22;31340;51.402;0.016;2022-11-14T18:20:46;15.30;99.90
44775;DHT22;31340;51.402;0.016;2022-11-14T18:23:32;15.20;99.90
44775;DHT22;31340;51.402;0.016;2022-11-14T18:26:21;15.20;99.90
44775;DHT22;31340;51.402;0.016;2022-11-14T18:29:11;15.10;99.90
44775;DHT22;31340;51.402;0.016;2022-11-14T18:32:00;15.10;99.90
44775;DHT22;31340;51.402;0.016;2022-11-14T18:34:46;15.00;99.90
44775;DHT22;31340;51.402;0.016;2022-11-14T18:37:32;15.00;99.90
44775;DHT22;31340;51.402;0.016;2022-11-14T18:40:19;15.00;99.90
44775;DHT22;31340;51.402;0.016;2022-11-14T18:43:07;14.90;99.90
44775;DHT22;31340;51.402;0.016;2022-11-14T18:46:12;14.90;99.90
44775;DHT22;31340;51.402;0.016;2022-11-14T18:49:00;14.90;99.90
44775;DHT22;31340;51.402;0.016;2022-11-14T18:51:47;14.80;99.90
44775;DHT22;31340;51.402;0.016;2022-11-14T18:54:34;14.80;99.90
44775;DHT22;31340;51.402;0.016;2022-11-14T18:57:20;14.80;99.90
44775;DHT22;31340;51.402;0.016;2022-11-14T19:00:07;14.80;99.90
44775;DHT22;31340;51.402;0.016;2022-11-14T19:02:54;14.80;99.90
44775;DHT22;31340;51.402;0.016;2022-11-14T19:05:41;14.80;99.90
44775;DHT22;31340;51.402;0.016;2022-11-14T19:08:27;14.80;99.90
44775;DHT22;31340;51.402;0.016;2022-11-14T19:11:16;14.80;99.90
44775;DHT22;31340;51.402;0.016;2022-11-14T19:14:21;14.80;99.90
44775;DHT22;31340;51.402;0.016;2022-11-14T19:17:08;14.80;99.90
44775;DHT22;31340;51.402;0.016;2022-11-14T19:19:55;14.80;99.90
44775;DHT22;31340;51.402;0.016;2022-11-14T19:22:42;14.80;99.90
44775;DHT22;31340;51.402;0.016;2022-11-14T19:25:30;14.80;99.90
44775;DHT22;31340;51.402;0.016;2022-11-14T19:28:26;14.80;99.90
44775;DHT22;31340;51.402;0.016;2022-11-14T19:31:14;14.80;99.90
44775;DHT22;31340;51.402;0.016;2022-11-14T19:34:02;14.80;99.90
44775;DHT22;31340;51.402;0.016;2022-11-14T19:36:48;14.80;99.90
44775;DHT22;31340;51.402;0.016;2022-11-14T19:39:50;14.80;99.90
44775;DHT22;31340;51.402;0.016;2022-11-14T19:42:40;14.70;99.90
44775;DHT22;31340;51.402;0.016;2022-11-14T19:45:27;14.80;99.90
44775;DHT22;31340;51.402;0.016;2022-11-14T19:48:13;14.80;99.90
44775;DHT22;31340;51.402;0.016;2022-11-14T19:51:08;14.80;99.90
44775;DHT22;31340;51.402;0.016;2022-11-14T19:53:56;14.80;99.90
44775;DHT22;31340;51.402;0.016;2022-11-14T19:56:43;14.80;99.90
44775;DHT22;31340;51.402;0.016;2022-11-14T19:59:29;14.80;99.90
44775;DHT22;31340;51.402;0.016;2022-11-14T20:02:15;14.80;99.90
44775;DHT22;31340;51.402;0.016;2022-11-14T20:05:02;14.80;99.90